Time;durP1;ratioP1;P1;durP2;ratioP2;P2;SDS_P1;SDS_P2;PMS_P1;PMS_P2;Temp;Humidity;BMP_temperature;BMP_pressure;BME280_temperature;BME280_humidity;BME280_pressure;Samples;Min_cycle;Max_cycle;Signal;HPM_P1;HPM_P2
2021/09/25 00:01:50;;;;;;;6.65;2.25;;;;;;;;;;4673082;30;32558;-64
2021/09/25 00:04:17;;;;;;;5.65;2.47;;;;;;;;;;4668303;30;32705;-65
2021/09/25 00:06:45;;;;;;;8.80;2.00;;;;;;;;;;4672833;30;32652;-63
2021/09/25 00:09:11;;;;;;;5.90;2.20;;;;;;;;;;4670243;30;32456;-64
2021/09/25 00:11:38;;;;;;;5.30;2.65;;;;;;;;;;4672144;30;33902;-64
2021/09/25 00:14:05;;;;;;;7.65;2.40;;;;;;;;;;4667277;30;33089;-64
2021/09/25 00:16:31;;;;;;;6.88;2.72;;;;;;;;;;4671037;30;32559;-67
2021/09/25 00:19:01;;;;;;;9.15;3.10;;;;;;;;;;4671403;30;31949;-66
2021/09/25 00:21:28;;;;;;;7.63;3.17;;;;;;;;;;4673087;30;35029;-66
2021/09/25 00:23:56;;;;;;;;;;;;;;;;;;4672177;30;32916;-64
2021/09/25 00:26:26;;;;;;;11.73;3.28;;;;;;;;;;4670580;30;32960;-67
2021/09/25 00:28:53;;;;;;;12.13;4.13;;;;;;;;;;4671334;30;32829;-66
2021/09/25 00:31:19;;;;;;;;;;;;;;;;;;4670402;30;32743;-64
2021/09/25 00:33:46;;;;;;;11.30;3.50;;;;;;;;;;4672023;30;34094;-64
2021/09/25 00:36:12;;;;;;;14.32;3.65;;;;;;;;;;4671194;30;32942;-67
2021/09/25 00:38:39;;;;;;;10.40;3.38;;;;;;;;;;4673999;30;32612;-65
2021/09/25 00:41:08;;;;;;;9.65;2.95;;;;;;;;;;4673580;30;32513;-65
2021/09/25 00:43:34;;;;;;;11.93;3.15;;;;;;;;;;4673106;30;35757;-65
2021/09/25 00:46:01;;;;;;;10.70;2.65;;;;;;;;;;4672579;30;32803;-64
2021/09/25 00:48:28;;;;;;;10.88;2.78;;;;;;;;;;4673488;30;32951;-64
2021/09/25 00:50:54;;;;;;;11.55;2.60;;;;;;;;;;4670075;30;32737;-65
2021/09/25 00:53:20;;;;;;;9.32;2.55;;;;;;;;;;4671178;30;32536;-64
2021/09/25 00:55:48;;;;;;;10.85;2.67;;;;;;;;;;4672673;30;35038;-64
2021/09/25 00:58:18;;;;;;;10.70;3.05;;;;;;;;;;4670145;30;33038;-66
2021/09/25 01:00:44;;;;;;;9.63;2.72;;;;;;;;;;4674944;30;32504;-66
2021/09/25 01:03:11;;;;;;;7.93;2.25;;;;;;;;;;4672576;30;32458;-65
2021/09/25 01:05:42;;;;;;;7.28;2.75;;;;;;;;;;4669544;30;34105;-65
2021/09/25 01:08:09;;;;;;;7.68;2.47;;;;;;;;;;4669934;30;32931;-64
2021/09/25 01:10:35;;;;;;;12.65;2.97;;;;;;;;;;4674011;30;32494;-64
2021/09/25 01:13:02;;;;;;;9.55;2.60;;;;;;;;;;4675617;30;32673;-64
2021/09/25 01:15:30;;;;;;;10.75;2.38;;;;;;;;;;4669650;30;32885;-65
2021/09/25 01:17:56;;;;;;;13.45;2.83;;;;;;;;;;4673273;30;35885;-64
2021/09/25 01:20:23;;;;;;;10.00;2.78;;;;;;;;;;4673958;30;32507;-64
2021/09/25 01:22:50;;;;;;;10.38;2.88;;;;;;;;;;4667660;30;32543;-64
2021/09/25 01:25:17;;;;;;;13.07;2.47;;;;;;;;;;4673952;30;32484;-63
2021/09/25 01:27:44;;;;;;;13.73;2.72;;;;;;;;;;4673800;30;37678;-64
2021/09/25 01:30:15;;;;;;;15.45;2.65;;;;;;;;;;4672681;30;32432;-64
2021/09/25 01:32:42;;;;;;;19.73;3.33;;;;;;;;;;4675457;30;32741;-66
2021/09/25 01:35:11;;;;;;;17.08;3.35;;;;;;;;;;4674208;30;32842;-64
2021/09/25 01:37:38;;;;;;;21.95;3.20;;;;;;;;;;4672820;30;32915;-64
2021/09/25 01:40:09;;;;;;;23.33;3.85;;;;;;;;;;4675020;30;35597;-64
2021/09/25 01:42:35;;;;;;;16.13;3.05;;;;;;;;;;4673298;30;32592;-64
2021/09/25 01:45:04;;;;;;;21.05;3.20;;;;;;;;;;4675177;30;32451;-66
2021/09/25 01:47:30;;;;;;;16.88;3.00;;;;;;;;;;4673351;30;32431;-65
2021/09/25 01:50:05;;;;;;;16.55;2.90;;;;;;;;;;4672944;30;35288;-64
2021/09/25 01:52:31;;;;;;;18.60;2.97;;;;;;;;;;4674854;30;32534;-65
2021/09/25 01:54:58;;;;;;;25.00;3.60;;;;;;;;;;4674179;30;32571;-64
2021/09/25 01:57:26;;;;;;;16.35;3.40;;;;;;;;;;4672688;30;32639;-65
2021/09/25 01:59:53;;;;;;;15.40;3.30;;;;;;;;;;4674452;30;32510;-64
2021/09/25 02:02:20;;;;;;;18.50;3.38;;;;;;;;;;4671986;30;34818;-66
2021/09/25 02:04:49;;;;;;;25.85;3.80;;;;;;;;;;4674303;30;32952;-67
2021/09/25 02:07:17;;;;;;;25.83;3.58;;;;;;;;;;4674572;30;32636;-64
2021/09/25 02:09:46;;;;;;;24.88;3.58;;;;;;;;;;4676035;30;32628;-64
2021/09/25 02:12:13;;;;;;;22.48;3.53;;;;;;;;;;4674784;30;34237;-67
2021/09/25 02:14:41;;;;;;;23.20;3.45;;;;;;;;;;4673752;30;32734;-64
2021/09/25 02:17:07;;;;;;;28.90;4.20;;;;;;;;;;4670484;30;32452;-64
2021/09/25 02:19:34;;;;;;;31.48;3.40;;;;;;;;;;4672679;30;32948;-63
2021/09/25 02:22:01;;;;;;;29.13;4.35;;;;;;;;;;4673381;30;32534;-64
2021/09/25 02:24:27;;;;;;;30.25;3.97;;;;;;;;;;4667557;30;35596;-64
2021/09/25 02:26:54;;;;;;;24.70;3.83;;;;;;;;;;4667843;30;32650;-65
2021/09/25 02:29:20;;;;;;;33.55;4.20;;;;;;;;;;4674094;30;32660;-66
2021/09/25 02:31:48;;;;;;;21.88;3.78;;;;;;;;;;4674231;30;32559;-64
2021/09/25 02:34:15;;;;;;;35.38;4.38;;;;;;;;;;4674791;30;34561;-65
2021/09/25 02:36:41;;;;;;;28.48;3.67;;;;;;;;;;4673091;30;32467;-66
2021/09/25 02:39:08;;;;;;;25.85;3.55;;;;;;;;;;4673035;30;32397;-65
2021/09/25 02:41:35;;;;;;;;;;;;;;;;;;4672372;30;32677;-65
2021/09/25 02:44:03;;;;;;;27.75;3.97;;;;;;;;;;4674423;30;32586;-66
2021/09/25 02:46:29;;;;;;;24.90;3.35;;;;;;;;;;4672851;30;34511;-66
2021/09/25 02:48:57;;;;;;;24.00;4.15;;;;;;;;;;4674777;30;32536;-65
2021/09/25 02:51:24;;;;;;;24.90;3.95;;;;;;;;;;4673990;30;33327;-64
2021/09/25 02:53:50;;;;;;;29.67;3.83;;;;;;;;;;4674110;30;32659;-64
2021/09/25 02:56:17;;;;;;;29.25;3.72;;;;;;;;;;4672540;30;36032;-63
2021/09/25 02:58:43;;;;;;;24.67;4.65;;;;;;;;;;4674061;30;32767;-64
2021/09/25 03:01:11;;;;;;;30.60;3.85;;;;;;;;;;4673576;30;32833;-63
2021/09/25 03:03:37;;;;;;;27.15;4.25;;;;;;;;;;4673249;30;32756;-63
2021/09/25 03:06:05;;;;;;;31.38;3.72;;;;;;;;;;4671916;30;32503;-63
2021/09/25 03:08:32;;;;;;;34.58;4.32;;;;;;;;;;4673269;30;34812;-65
2021/09/25 03:10:58;;;;;;;23.42;3.47;;;;;;;;;;4672012;30;32623;-66
2021/09/25 03:13:25;;;;;;;30.35;3.90;;;;;;;;;;4672697;30;32622;-64
2021/09/25 03:15:51;;;;;;;22.73;3.63;;;;;;;;;;4674642;30;33269;-67
2021/09/25 03:18:18;;;;;;;31.90;4.70;;;;;;;;;;4672607;30;34676;-64
2021/09/25 03:20:44;;;;;;;33.75;4.13;;;;;;;;;;4672659;30;32460;-66
2021/09/25 03:23:12;;;;;;;28.73;4.18;;;;;;;;;;4673755;30;32563;-64
2021/09/25 03:25:39;;;;;;;32.55;3.80;;;;;;;;;;4671919;30;32647;-66
2021/09/25 03:28:06;;;;;;;29.90;4.13;;;;;;;;;;4655869;30;32801;-64
2021/09/25 03:30:33;;;;;;;24.02;4.20;;;;;;;;;;4671369;30;35312;-64
2021/09/25 03:32:59;;;;;;;31.05;4.38;;;;;;;;;;4669282;30;32568;-65
2021/09/25 03:35:26;;;;;;;30.95;4.90;;;;;;;;;;4670888;30;32980;-64
2021/09/25 03:37:52;;;;;;;35.33;3.90;;;;;;;;;;4674230;30;32414;-64
2021/09/25 03:40:20;;;;;;;33.75;3.83;;;;;;;;;;4672251;30;35570;-66
2021/09/25 03:42:47;;;;;;;30.83;3.47;;;;;;;;;;4672746;30;32918;-63
2021/09/25 03:45:14;;;;;;;25.50;4.07;;;;;;;;;;4673129;30;32538;-66
2021/09/25 03:47:40;;;;;;;31.15;4.05;;;;;;;;;;4672070;30;32366;-67
2021/09/25 03:50:08;;;;;;;28.92;4.07;;;;;;;;;;4672047;30;32573;-63
2021/09/25 03:52:35;;;;;;;26.73;3.75;;;;;;;;;;4674108;30;35718;-65
2021/09/25 03:55:01;;;;;;;;;;;;;;;;;;4672248;30;32540;-63
2021/09/25 03:57:29;;;;;;;;;;;;;;;;;;4672763;30;32842;-63
2021/09/25 03:59:55;;;;;;;30.38;4.55;;;;;;;;;;4675886;30;32727;-63
2021/09/25 04:02:21;;;;;;;34.22;4.10;;;;;;;;;;4671801;30;35539;-63
2021/09/25 04:04:48;;;;;;;35.83;4.15;;;;;;;;;;4673780;30;32695;-64
2021/09/25 04:07:15;;;;;;;31.17;3.80;;;;;;;;;;4671904;30;32350;-64
2021/09/25 04:09:41;;;;;;;28.80;4.10;;;;;;;;;;4673646;30;32879;-64
2021/09/25 04:12:08;;;;;;;22.65;3.85;;;;;;;;;;4672437;30;32339;-64
2021/09/25 04:14:36;;;;;;;29.70;3.95;;;;;;;;;;4672755;30;35015;-63
2021/09/25 04:17:02;;;;;;;28.77;4.75;;;;;;;;;;4670625;30;32511;-63
2021/09/25 04:19:29;;;;;;;32.00;4.63;;;;;;;;;;4669904;30;32558;-63
2021/09/25 04:21:55;;;;;;;30.70;4.00;;;;;;;;;;4671267;30;32817;-65
2021/09/25 04:24:22;;;;;;;24.27;3.88;;;;;;;;;;4669814;30;35119;-65
2021/09/25 04:26:48;;;;;;;31.92;4.38;;;;;;;;;;4672099;30;33217;-64
2021/09/25 04:29:15;;;;;;;27.23;3.50;;;;;;;;;;4665349;30;32548;-63
2021/09/25 04:31:44;;;;;;;35.78;3.75;;;;;;;;;;4671776;30;32602;-63
2021/09/25 04:34:13;;;;;;;27.77;3.70;;;;;;;;;;4670313;30;32501;-65
2021/09/25 04:36:40;;;;;;;28.98;4.18;;;;;;;;;;4672484;30;34598;-63
2021/09/25 04:39:07;;;;;;;23.90;4.50;;;;;;;;;;4670604;30;33708;-66
2021/09/25 04:41:34;;;;;;;25.73;4.03;;;;;;;;;;4672064;30;33059;-64
2021/09/25 04:44:00;;;;;;;19.40;3.88;;;;;;;;;;4669295;30;32516;-64
2021/09/25 04:46:27;;;;;;;25.95;4.25;;;;;;;;;;4674400;30;34702;-64
2021/09/25 04:48:55;;;;;;;30.67;4.47;;;;;;;;;;4672636;30;32637;-63
2021/09/25 04:51:21;;;;;;;31.10;4.03;;;;;;;;;;4673511;30;32481;-64
2021/09/25 04:53:48;;;;;;;26.20;3.80;;;;;;;;;;4672383;30;32443;-63
2021/09/25 04:56:14;;;;;;;27.02;4.28;;;;;;;;;;4674167;30;32978;-65
2021/09/25 04:58:42;;;;;;;27.85;3.83;;;;;;;;;;4672804;30;35297;-64
2021/09/25 05:01:09;;;;;;;26.13;4.45;;;;;;;;;;4672272;30;32552;-64
2021/09/25 05:03:36;;;;;;;32.95;4.47;;;;;;;;;;4674918;30;32838;-63
2021/09/25 05:06:04;;;;;;;28.67;3.65;;;;;;;;;;4673258;30;32825;-63
2021/09/25 05:08:30;;;;;;;31.25;3.88;;;;;;;;;;4674276;30;35224;-64
2021/09/25 05:10:57;;;;;;;33.55;4.32;;;;;;;;;;4673479;30;32494;-63
2021/09/25 05:13:24;;;;;;;21.80;3.38;;;;;;;;;;4676032;30;32505;-65
2021/09/25 05:15:51;;;;;;;23.80;4.15;;;;;;;;;;4677219;30;32357;-64
2021/09/25 05:18:17;;;;;;;29.90;4.38;;;;;;;;;;4674890;30;32534;-64
2021/09/25 05:20:44;;;;;;;;;;;;;;;;;;4676521;30;34065;-65
2021/09/25 05:23:11;;;;;;;20.73;3.33;;;;;;;;;;4675842;30;32587;-63
2021/09/25 05:25:38;;;;;;;23.25;3.40;;;;;;;;;;4672835;30;33461;-63
2021/09/25 05:28:06;;;;;;;25.73;3.65;;;;;;;;;;4675820;30;33065;-65
2021/09/25 05:30:32;;;;;;;17.30;3.35;;;;;;;;;;4672998;30;35796;-64
2021/09/25 05:32:59;;;;;;;21.50;3.97;;;;;;;;;;4668814;30;32679;-63
2021/09/25 05:35:25;;;;;;;;;;;;;;;;;;4668472;30;32770;-63
2021/09/25 05:37:52;;;;;;;28.48;3.45;;;;;;;;;;4673454;30;32661;-65
2021/09/25 05:40:20;;;;;;;25.80;3.90;;;;;;;;;;4673467;30;32638;-63
2021/09/25 05:42:47;;;;;;;26.67;3.85;;;;;;;;;;4673514;30;35704;-64
2021/09/25 05:45:16;;;;;;;;;;;;;;;;;;4673294;30;33034;-63
2021/09/25 05:47:42;;;;;;;24.90;3.55;;;;;;;;;;4673438;30;32714;-64
2021/09/25 05:50:10;;;;;;;26.58;4.15;;;;;;;;;;4672907;30;32536;-64
2021/09/25 05:52:36;;;;;;;20.23;3.40;;;;;;;;;;4673443;30;34530;-65
2021/09/25 05:55:04;;;;;;;23.90;4.45;;;;;;;;;;4673751;30;32619;-65
2021/09/25 05:57:32;;;;;;;24.77;4.10;;;;;;;;;;4674750;30;32345;-64
2021/09/25 05:59:59;;;;;;;24.75;3.78;;;;;;;;;;4673998;30;32747;-64
2021/09/25 06:02:25;;;;;;;29.95;4.32;;;;;;;;;;4674386;30;32522;-63
2021/09/25 06:04:52;;;;;;;29.75;4.03;;;;;;;;;;4670149;30;35404;-63
2021/09/25 06:07:19;;;;;;;30.48;3.85;;;;;;;;;;4674597;30;32524;-67
2021/09/25 06:09:46;;;;;;;25.90;3.83;;;;;;;;;;4673260;30;32618;-64
2021/09/25 06:12:12;;;;;;;31.85;4.20;;;;;;;;;;4674511;30;32487;-64
2021/09/25 06:14:40;;;;;;;;;;;;;;;;;;4674053;30;34878;-64
2021/09/25 06:17:06;;;;;;;32.17;4.30;;;;;;;;;;4673578;30;32571;-64
2021/09/25 06:19:32;;;;;;;;;;;;;;;;;;4672331;30;32495;-63
2021/09/25 06:21:59;;;;;;;37.85;5.07;;;;;;;;;;4673342;30;32583;-66
2021/09/25 06:24:25;;;;;;;36.65;4.70;;;;;;;;;;4674301;30;32476;-64
2021/09/25 06:26:52;;;;;;;;;;;;;;;;;;4674156;30;35149;-64
2021/09/25 06:29:18;;;;;;;31.88;4.15;;;;;;;;;;4669893;30;32515;-66
2021/09/25 06:31:46;;;;;;;;;;;;;;;;;;4672911;30;32702;-66
2021/09/25 06:34:12;;;;;;;39.25;4.93;;;;;;;;;;4670823;30;32597;-64
2021/09/25 06:36:41;;;;;;;45.17;6.30;;;;;;;;;;4666850;30;35666;-64
2021/09/25 06:39:07;;;;;;;49.78;5.75;;;;;;;;;;4671438;30;32687;-67
2021/09/25 06:41:34;;;;;;;48.95;6.30;;;;;;;;;;4668208;30;32598;-63
2021/09/25 06:44:00;;;;;;;36.75;5.55;;;;;;;;;;4671950;30;32718;-63
2021/09/25 06:46:27;;;;;;;;;;;;;;;;;;4675389;30;32564;-67
2021/09/25 06:48:54;;;;;;;47.80;5.88;;;;;;;;;;4674985;30;35980;-65
2021/09/25 06:51:21;;;;;;;49.25;5.53;;;;;;;;;;4673275;30;33178;-65
2021/09/25 06:53:48;;;;;;;41.50;5.18;;;;;;;;;;4674131;30;32818;-65
2021/09/25 06:56:15;;;;;;;35.65;4.72;;;;;;;;;;4676332;30;32677;-64
2021/09/25 06:58:41;;;;;;;45.90;6.10;;;;;;;;;;4663335;30;34373;-63
2021/09/25 07:01:08;;;;;;;;;;;;;;;;;;4671195;30;32331;-67
2021/09/25 07:03:34;;;;;;;45.72;6.03;;;;;;;;;;4672599;30;32404;-65
2021/09/25 07:06:02;;;;;;;50.67;5.68;;;;;;;;;;4674169;30;32429;-62
2021/09/25 07:08:29;;;;;;;52.17;6.55;;;;;;;;;;4673247;30;32519;-63
2021/09/25 07:10:55;;;;;;;57.90;7.28;;;;;;;;;;4671979;30;34197;-64
2021/09/25 07:13:22;;;;;;;63.75;7.57;;;;;;;;;;4674343;30;32675;-64
2021/09/25 07:15:48;;;;;;;;;;;;;;;;;;4671100;30;32611;-64
2021/09/25 07:18:14;;;;;;;45.35;5.55;;;;;;;;;;4675142;30;32947;-64
2021/09/25 07:20:41;;;;;;;46.17;5.95;;;;;;;;;;4674663;30;34380;-65
2021/09/25 07:23:10;;;;;;;64.57;6.57;;;;;;;;;;4675801;30;32733;-66
2021/09/25 07:25:39;;;;;;;61.45;6.88;;;;;;;;;;4674883;30;32555;-65
2021/09/25 07:28:06;;;;;;;51.33;6.80;;;;;;;;;;4685471;30;33076;-65
2021/09/25 07:30:33;;;;;;;54.33;6.47;;;;;;;;;;4674187;30;33319;-64
2021/09/25 07:33:00;;;;;;;48.65;5.35;;;;;;;;;;4674349;30;33429;-66
2021/09/25 07:35:27;;;;;;;59.10;6.97;;;;;;;;;;4673401;30;32454;-64
2021/09/25 07:37:53;;;;;;;48.10;5.97;;;;;;;;;;4671294;30;32642;-64
2021/09/25 07:40:21;;;;;;;56.53;7.07;;;;;;;;;;4669639;30;32564;-65
2021/09/25 07:42:48;;;;;;;50.17;6.30;;;;;;;;;;4674037;30;35235;-64
2021/09/25 07:45:14;;;;;;;55.88;7.00;;;;;;;;;;4674447;30;32870;-64
2021/09/25 07:47:41;;;;;;;51.40;6.18;;;;;;;;;;4669130;30;33012;-66
2021/09/25 07:50:08;;;;;;;;;;;;;;;;;;4673036;30;32675;-65
2021/09/25 07:52:39;;;;;;;60.83;6.13;;;;;;;;;;4671819;30;32481;-66
2021/09/25 07:55:07;;;;;;;61.38;6.55;;;;;;;;;;4672405;30;32731;-64
2021/09/25 07:57:35;;;;;;;60.83;6.80;;;;;;;;;;4674113;30;32547;-67
2021/09/25 08:00:02;;;;;;;55.25;6.25;;;;;;;;;;4671691;30;32380;-63
2021/09/25 08:02:28;;;;;;;50.83;7.20;;;;;;;;;;4671440;30;32399;-64
2021/09/25 08:04:55;;;;;;;56.08;7.15;;;;;;;;;;4671982;30;34275;-67
2021/09/25 08:07:21;;;;;;;53.55;6.43;;;;;;;;;;4671601;30;32714;-66
2021/09/25 08:09:48;;;;;;;53.83;7.38;;;;;;;;;;4671757;30;32722;-65
2021/09/25 08:12:14;;;;;;;58.35;7.18;;;;;;;;;;4673343;30;32381;-65
2021/09/25 08:14:43;;;;;;;55.83;6.82;;;;;;;;;;4672983;30;32445;-66
2021/09/25 08:17:10;;;;;;;68.50;7.72;;;;;;;;;;4671576;30;32614;-65
2021/09/25 08:19:36;;;;;;;49.17;6.80;;;;;;;;;;4672031;30;32854;-67
2021/09/25 08:22:03;;;;;;;54.25;6.78;;;;;;;;;;4670933;30;32800;-68
2021/09/25 08:24:30;;;;;;;50.95;7.63;;;;;;;;;;4672419;30;32450;-67
2021/09/25 08:26:56;;;;;;;56.90;7.28;;;;;;;;;;4670213;30;34755;-65
2021/09/25 08:29:24;;;;;;;;;;;;;;;;;;4669833;30;32996;-67
2021/09/25 08:31:53;;;;;;;57.50;7.28;;;;;;;;;;4673666;30;32990;-66
2021/09/25 08:34:19;;;;;;;48.83;7.40;;;;;;;;;;4671146;30;32421;-65
2021/09/25 08:36:46;;;;;;;59.80;7.43;;;;;;;;;;4671771;30;32597;-68
2021/09/25 08:39:13;;;;;;;53.22;7.47;;;;;;;;;;4671898;30;33982;-67
2021/09/25 08:41:41;;;;;;;50.03;6.88;;;;;;;;;;4673562;30;32589;-66
2021/09/25 08:44:07;;;;;;;56.00;7.82;;;;;;;;;;4671669;30;32702;-67
2021/09/25 08:46:34;;;;;;;;;;;;;;;;;;4666289;30;32626;-67
2021/09/25 08:49:02;;;;;;;46.38;6.63;;;;;;;;;;4666671;30;34491;-65
2021/09/25 08:51:29;;;;;;;42.45;6.53;;;;;;;;;;4668840;30;33339;-66
2021/09/25 08:53:55;;;;;;;55.88;6.78;;;;;;;;;;4664969;30;32455;-66
2021/09/25 08:56:22;;;;;;;52.72;6.97;;;;;;;;;;4671423;30;32721;-64
2021/09/25 08:58:49;;;;;;;61.80;7.00;;;;;;;;;;4669881;30;32879;-64
2021/09/25 09:01:20;;;;;;;48.63;7.95;;;;;;;;;;4672971;30;32512;-66
2021/09/25 09:03:47;;;;;;;55.63;7.85;;;;;;;;;;4668505;30;32533;-66
2021/09/25 09:06:19;;;;;;;58.15;8.38;;;;;;;;;;4666956;30;33526;-67
2021/09/25 09:08:48;;;;;;;54.22;7.53;;;;;;;;;;4669605;30;32607;-65
2021/09/25 09:11:17;;;;;;;62.38;7.60;;;;;;;;;;4667433;30;34686;-66
2021/09/25 09:13:46;;;;;;;55.28;6.50;;;;;;;;;;4670604;30;33314;-66
2021/09/25 09:16:14;;;;;;;58.45;7.85;;;;;;;;;;4670833;30;32468;-67
2021/09/25 09:18:43;;;;;;;60.97;8.02;;;;;;;;;;4670386;30;32648;-66
2021/09/25 09:21:15;;;;;;;49.97;7.10;;;;;;;;;;4670386;30;32540;-66
2021/09/25 09:23:44;;;;;;;51.92;7.32;;;;;;;;;;4669299;30;33643;-65
2021/09/25 09:26:13;;;;;;;48.28;6.97;;;;;;;;;;4670775;30;32842;-66
2021/09/25 09:28:42;;;;;;;49.42;6.65;;;;;;;;;;4671589;30;32540;-65
2021/09/25 09:31:10;;;;;;;44.03;7.00;;;;;;;;;;4671870;30;32324;-65
2021/09/25 09:33:42;;;;;;;38.30;6.53;;;;;;;;;;4676938;30;35293;-67
2021/09/25 09:36:27;;;;;;;51.00;6.35;;;;;;;;;;4678019;30;32806;-65
2021/09/25 09:38:59;;;;;;;52.95;7.32;;;;;;;;;;4672682;30;32441;-66
2021/09/25 09:41:30;;;;;;;47.80;6.45;;;;;;;;;;4672359;30;32459;-65
2021/09/25 09:44:01;;;;;;;47.58;7.28;;;;;;;;;;4675525;30;34508;-66
2021/09/25 09:46:38;;;;;;;45.85;7.00;;;;;;;;;;4676789;30;33151;-65
2021/09/25 09:49:06;;;;;;;42.85;6.78;;;;;;;;;;4675741;30;32769;-65
2021/09/25 09:51:43;;;;;;;45.55;6.78;;;;;;;;;;4676313;30;32583;-67
2021/09/25 09:54:17;;;;;;;41.22;5.93;;;;;;;;;;4674282;30;32540;-64
2021/09/25 09:56:44;;;;;;;39.17;6.43;;;;;;;;;;4666303;30;35155;-64
2021/09/25 09:59:12;;;;;;;41.95;6.68;;;;;;;;;;4675242;30;32934;-66
2021/09/25 10:01:40;;;;;;;38.55;6.72;;;;;;;;;;4669369;30;32690;-67
2021/09/25 10:04:07;;;;;;;50.03;8.05;;;;;;;;;;4673916;30;32567;-65
2021/09/25 10:06:38;;;;;;;42.80;6.70;;;;;;;;;;4674390;30;35428;-65
2021/09/25 10:09:08;;;;;;;39.78;6.57;;;;;;;;;;4604602;30;32582;-65
2021/09/25 10:11:37;;;;;;;33.90;5.90;;;;;;;;;;4680842;30;32766;-66
2021/09/25 10:14:04;;;;;;;40.65;6.25;;;;;;;;;;4673505;30;32399;-65
2021/09/25 10:16:32;;;;;;;33.55;6.15;;;;;;;;;;4672694;30;32821;-66
2021/09/25 10:19:02;;;;;;;44.08;7.20;;;;;;;;;;4672842;30;34798;-68
2021/09/25 10:21:34;;;;;;;26.58;6.22;;;;;;;;;;4673000;30;32581;-65
2021/09/25 10:24:06;;;;;;;29.08;6.38;;;;;;;;;;4672121;30;33624;-65
2021/09/25 10:26:33;;;;;;;33.42;6.55;;;;;;;;;;4669134;30;32929;-65
2021/09/25 10:29:01;;;;;;;36.92;7.00;;;;;;;;;;4667554;30;35657;-66
2021/09/25 10:31:29;;;;;;;42.97;6.30;;;;;;;;;;4650714;30;32490;-66
2021/09/25 10:34:14;;;;;;;41.97;6.38;;;;;;;;;;4654909;30;32927;-66
2021/09/25 10:36:50;;;;;;;37.35;7.05;;;;;;;;;;4673249;30;32696;-66
2021/09/25 10:39:26;;;;;;;34.47;6.15;;;;;;;;;;4670404;30;32494;-67
2021/09/25 10:42:10;;;;;;;30.35;6.18;;;;;;;;;;4672747;30;33915;-67
2021/09/25 10:44:47;;;;;;;28.33;6.25;;;;;;;;;;4669900;30;32994;-65
2021/09/25 10:47:17;;;;;;;35.00;5.88;;;;;;;;;;4670009;30;33053;-65
2021/09/25 10:49:51;;;;;;;44.25;6.15;;;;;;;;;;4671311;30;32570;-64
2021/09/25 10:52:24;;;;;;;28.98;5.65;;;;;;;;;;4667824;30;34364;-65
2021/09/25 10:55:24;;;;;;;27.17;5.90;;;;;;;;;;4671128;30;32551;-67
2021/09/25 10:58:17;;;;;;;31.73;6.15;;;;;;;;;;4669788;30;32878;-64
2021/09/25 11:00:59;;;;;;;29.33;5.85;;;;;;;;;;4670275;30;32535;-62
2021/09/25 11:03:55;;;;;;;33.60;6.45;;;;;;;;;;4675680;30;32563;-64
2021/09/25 11:06:26;;;;;;;35.08;6.80;;;;;;;;;;4669251;30;41958;-63
2021/09/25 11:08:57;;;;;;;28.20;5.65;;;;;;;;;;4674368;30;32992;-62
2021/09/25 11:11:41;;;;;;;38.75;6.78;;;;;;;;;;4661237;30;32831;-62
2021/09/25 11:14:23;;;;;;;33.72;6.60;;;;;;;;;;4674304;30;31941;-63
2021/09/25 11:17:07;;;;;;;31.58;6.15;;;;;;;;;;4673425;30;34217;-65
2021/09/25 11:19:43;;;;;;;28.65;6.55;;;;;;;;;;4670745;30;33953;-63
2021/09/25 11:22:18;;;;;;;28.02;6.28;;;;;;;;;;4675018;30;32711;-63
2021/09/25 11:24:49;;;;;;;35.33;5.95;;;;;;;;;;4671231;30;32535;-65
2021/09/25 11:27:18;;;;;;;32.88;5.20;;;;;;;;;;4673594;30;32698;-66
2021/09/25 11:30:04;;;;;;;33.50;5.70;;;;;;;;;;4675973;30;34492;-65
2021/09/25 11:32:33;;;;;;;22.42;4.00;;;;;;;;;;4675471;30;32472;-67
2021/09/25 11:35:04;;;;;;;26.90;4.90;;;;;;;;;;4618122;30;32472;-64
2021/09/25 11:37:31;;;;;;;27.50;4.47;;;;;;;;;;4672097;30;32511;-66
2021/09/25 11:40:00;;;;;;;30.83;5.13;;;;;;;;;;4685961;30;34136;-64
2021/09/25 11:42:29;;;;;;;30.17;5.10;;;;;;;;;;4670051;30;33590;-62
2021/09/25 11:45:00;;;;;;;34.67;4.97;;;;;;;;;;4670932;30;32381;-65
2021/09/25 11:47:33;;;;;;;41.58;4.80;;;;;;;;;;4671966;30;33041;-64
2021/09/25 11:50:12;;;;;;;39.50;5.90;;;;;;;;;;4675898;30;32766;-63
2021/09/25 11:52:39;;;;;;;40.35;6.85;;;;;;;;;;4673091;30;34820;-63
2021/09/25 11:55:08;;;;;;;38.40;5.70;;;;;;;;;;4673837;30;32813;-63
2021/09/25 11:57:35;;;;;;;29.63;5.72;;;;;;;;;;4672104;30;32400;-63
2021/09/25 12:00:16;;;;;;;31.05;5.05;;;;;;;;;;4671621;30;32342;-63
2021/09/25 12:02:44;;;;;;;22.15;5.05;;;;;;;;;;4670422;30;35132;-63
2021/09/25 12:05:29;;;;;;;28.73;4.82;;;;;;;;;;4671740;30;32624;-63
2021/09/25 12:07:57;;;;;;;33.03;6.78;;;;;;;;;;4671327;30;34330;-64
2021/09/25 12:10:28;;;;;;;33.88;5.72;;;;;;;;;;4671708;30;32646;-62
2021/09/25 12:13:02;;;;;;;36.00;6.22;;;;;;;;;;4676353;30;32685;-63
2021/09/25 12:15:33;;;;;;;40.10;6.50;;;;;;;;;;4670624;30;34697;-63
2021/09/25 12:18:15;;;;;;;30.13;5.28;;;;;;;;;;4672098;30;32442;-67
2021/09/25 12:20:43;;;;;;;23.17;4.35;;;;;;;;;;4664337;30;32913;-64
2021/09/25 12:23:16;;;;;;;27.38;4.90;;;;;;;;;;4671629;30;32382;-63
2021/09/25 12:25:44;;;;;;;29.80;4.65;;;;;;;;;;4672284;30;35347;-65
2021/09/25 12:28:33;;;;;;;33.50;4.32;;;;;;;;;;4674475;30;32481;-64
2021/09/25 12:31:03;;;;;;;29.02;5.20;;;;;;;;;;4674751;30;32507;-67
2021/09/25 12:33:29;;;;;;;25.90;4.60;;;;;;;;;;4675562;30;32539;-64
2021/09/25 12:36:02;;;;;;;28.70;5.25;;;;;;;;;;4672881;30;32937;-63
2021/09/25 12:38:30;;;;;;;36.03;5.65;;;;;;;;;;4674148;30;34329;-62
2021/09/25 12:41:08;;;;;;;32.90;5.85;;;;;;;;;;4671604;30;32579;-63
2021/09/25 12:43:39;;;;;;;30.73;5.90;;;;;;;;;;4670876;30;32737;-61
2021/09/25 12:46:21;;;;;;;35.13;5.88;;;;;;;;;;4670592;30;32800;-62
2021/09/25 12:49:05;;;;;;;28.10;5.30;;;;;;;;;;4671249;30;35162;-62
2021/09/25 12:51:34;;;;;;;38.65;5.45;;;;;;;;;;4671472;30;32546;-64
2021/09/25 12:54:03;;;;;;;37.42;5.95;;;;;;;;;;4675112;30;32474;-61
2021/09/25 12:56:38;;;;;;;33.35;5.78;;;;;;;;;;4673993;30;32432;-62
2021/09/25 12:59:07;;;;;;;21.90;5.30;;;;;;;;;;4674380;30;32491;-66
2021/09/25 13:01:34;;;;;;;28.15;4.85;;;;;;;;;;4673086;30;35057;-63
2021/09/25 13:04:18;;;;;;;35.60;6.82;;;;;;;;;;4673678;30;32910;-63
2021/09/25 13:06:45;;;;;;;33.25;5.13;;;;;;;;;;4676591;30;32254;-62
2021/09/25 13:09:12;;;;;;;33.67;5.72;;;;;;;;;;4676083;30;32584;-63
2021/09/25 13:11:41;;;;;;;29.77;4.97;;;;;;;;;;4678202;30;34089;-63
2021/09/25 13:14:12;;;;;;;34.97;5.07;;;;;;;;;;4679397;30;32543;-62
2021/09/25 13:16:41;;;;;;;30.33;5.78;;;;;;;;;;4674633;30;32443;-63
2021/09/25 13:19:08;;;;;;;32.15;5.22;;;;;;;;;;4676407;30;32491;-65
2021/09/25 13:21:36;;;;;;;30.48;5.03;;;;;;;;;;4676276;30;32811;-63
2021/09/25 13:24:06;;;;;;;26.58;4.72;;;;;;;;;;4669653;30;34640;-66
2021/09/25 13:26:34;;;;;;;27.52;5.20;;;;;;;;;;4669620;30;32452;-64
2021/09/25 13:29:03;;;;;;;26.55;5.07;;;;;;;;;;4680056;30;32549;-63
2021/09/25 13:31:30;;;;;;;27.50;5.13;;;;;;;;;;4673984;30;32621;-62
2021/09/25 13:33:56;;;;;;;;;;;;;;;;;;4676791;30;35243;-62
2021/09/25 13:36:23;;;;;;;26.52;4.22;;;;;;;;;;4683344;30;32768;-65
2021/09/25 13:38:50;;;;;;;29.27;5.13;;;;;;;;;;4673339;30;32539;-63
2021/09/25 13:41:18;;;;;;;25.30;5.22;;;;;;;;;;4677307;30;32732;-63
2021/09/25 13:43:44;;;;;;;27.13;5.78;;;;;;;;;;4679461;30;32747;-65
2021/09/25 13:46:13;;;;;;;36.95;6.47;;;;;;;;;;4677195;30;35596;-62
2021/09/25 13:48:39;;;;;;;23.38;5.18;;;;;;;;;;4680009;30;32696;-65
2021/09/25 13:51:06;;;;;;;24.67;5.40;;;;;;;;;;4673821;30;32743;-63
2021/09/25 13:53:32;;;;;;;27.83;6.43;;;;;;;;;;4677691;30;32374;-66
2021/09/25 13:55:59;;;;;;;25.42;6.13;;;;;;;;;;4676890;30;35008;-63
2021/09/25 13:58:27;;;;;;;27.38;6.35;;;;;;;;;;4675678;30;32829;-63
2021/09/25 14:00:56;;;;;;;27.33;6.47;;;;;;;;;;4673692;30;32574;-63
2021/09/25 14:03:24;;;;;;;33.97;8.82;;;;;;;;;;4677655;30;32680;-63
2021/09/25 14:05:50;;;;;;;28.52;7.97;;;;;;;;;;4673717;30;33471;-63
2021/09/25 14:08:20;;;;;;;29.88;7.32;;;;;;;;;;4675528;30;34116;-65
2021/09/25 14:10:47;;;;;;;27.65;7.47;;;;;;;;;;4675518;30;32550;-67
2021/09/25 14:13:13;;;;;;;;;;;;;;;;;;4675073;30;32898;-64
2021/09/25 14:15:40;;;;;;;30.13;8.60;;;;;;;;;;4676248;30;32447;-64
2021/09/25 14:18:09;;;;;;;;;;;;;;;;;;4673917;30;35121;-62
2021/09/25 14:20:41;;;;;;;26.98;7.28;;;;;;;;;;4679786;30;32451;-67
2021/09/25 14:23:10;;;;;;;24.48;6.75;;;;;;;;;;4676437;30;32907;-62
2021/09/25 14:25:38;;;;;;;27.70;6.68;;;;;;;;;;4677486;30;32405;-62
2021/09/25 14:28:05;;;;;;;18.70;6.15;;;;;;;;;;4665425;30;33029;-68
2021/09/25 14:30:31;;;;;;;21.70;6.03;;;;;;;;;;4675854;30;34378;-63
2021/09/25 14:32:58;;;;;;;24.75;6.78;;;;;;;;;;4670197;30;32622;-64
2021/09/25 14:35:27;;;;;;;19.85;6.43;;;;;;;;;;4677982;30;32534;-63
2021/09/25 14:37:55;;;;;;;23.75;6.47;;;;;;;;;;4679917;30;32353;-63
2021/09/25 14:40:22;;;;;;;17.00;6.25;;;;;;;;;;4676734;30;34968;-64
2021/09/25 14:42:49;;;;;;;15.15;5.35;;;;;;;;;;4677258;30;32660;-66
2021/09/25 14:45:15;;;;;;;23.23;6.25;;;;;;;;;;4679203;30;32487;-64
2021/09/25 14:47:42;;;;;;;21.27;5.75;;;;;;;;;;4677201;30;32586;-65